sensor_id;sensor_type;location;lat;lon;timestamp;P1;durP1;ratioP1;P2;durP2;ratioP2
34673;SDS011;20879;55.668;37.858;2023-02-10T00:01:35;6.07;;;3.00;;
34673;SDS011;20879;55.668;37.858;2023-02-10T00:04:04;6.10;;;3.72;;
34673;SDS011;20879;55.668;37.858;2023-02-10T00:06:34;7.43;;;4.47;;
34673;SDS011;20879;55.668;37.858;2023-02-10T00:09:03;6.55;;;3.83;;
34673;SDS011;20879;55.668;37.858;2023-02-10T00:11:35;6.88;;;4.10;;
34673;SDS011;20879;55.668;37.858;2023-02-10T00:14:22;4.40;;;3.00;;
34673;SDS011;20879;55.668;37.858;2023-02-10T00:16:52;5.03;;;3.60;;
34673;SDS011;20879;55.668;37.858;2023-02-10T00:19:23;7.60;;;4.00;;
34673;SDS011;20879;55.668;37.858;2023-02-10T00:21:54;4.10;;;2.92;;
34673;SDS011;20879;55.668;37.858;2023-02-10T00:24:23;5.18;;;3.33;;
34673;SDS011;20879;55.668;37.858;2023-02-10T00:26:54;4.97;;;3.28;;
34673;SDS011;20879;55.668;37.858;2023-02-10T00:29:29;4.72;;;3.50;;
34673;SDS011;20879;55.668;37.858;2023-02-10T00:32:00;6.70;;;3.85;;
34673;SDS011;20879;55.668;37.858;2023-02-10T00:34:35;5.75;;;3.97;;
34673;SDS011;20879;55.668;37.858;2023-02-10T00:37:05;4.47;;;3.17;;
34673;SDS011;20879;55.668;37.858;2023-02-10T00:39:34;5.63;;;3.72;;
34673;SDS011;20879;55.668;37.858;2023-02-10T00:42:05;5.70;;;3.58;;
34673;SDS011;20879;55.668;37.858;2023-02-10T00:44:40;5.78;;;3.50;;
34673;SDS011;20879;55.668;37.858;2023-02-10T00:47:09;5.70;;;3.63;;
34673;SDS011;20879;55.668;37.858;2023-02-10T00:49:43;7.60;;;3.83;;
34673;SDS011;20879;55.668;37.858;2023-02-10T00:52:13;7.03;;;4.13;;
34673;SDS011;20879;55.668;37.858;2023-02-10T00:54:42;5.53;;;3.67;;
34673;SDS011;20879;55.668;37.858;2023-02-10T00:57:13;5.10;;;3.38;;
34673;SDS011;20879;55.668;37.858;2023-02-10T00:59:43;5.28;;;3.53;;
34673;SDS011;20879;55.668;37.858;2023-02-10T01:02:17;6.63;;;3.83;;
34673;SDS011;20879;55.668;37.858;2023-02-10T01:04:46;6.50;;;3.90;;
34673;SDS011;20879;55.668;37.858;2023-02-10T01:07:15;4.35;;;3.08;;
34673;SDS011;20879;55.668;37.858;2023-02-10T01:09:45;6.65;;;3.78;;
34673;SDS011;20879;55.668;37.858;2023-02-10T01:12:16;6.72;;;3.78;;
34673;SDS011;20879;55.668;37.858;2023-02-10T01:14:50;5.45;;;3.53;;
34673;SDS011;20879;55.668;37.858;2023-02-10T01:17:22;6.05;;;3.45;;
34673;SDS011;20879;55.668;37.858;2023-02-10T01:19:51;7.40;;;3.78;;
34673;SDS011;20879;55.668;37.858;2023-02-10T01:22:21;7.30;;;4.30;;
34673;SDS011;20879;55.668;37.858;2023-02-10T01:24:50;6.47;;;3.80;;
34673;SDS011;20879;55.668;37.858;2023-02-10T01:27:28;6.68;;;3.78;;
34673;SDS011;20879;55.668;37.858;2023-02-10T01:30:04;5.28;;;3.63;;
34673;SDS011;20879;55.668;37.858;2023-02-10T01:32:33;7.43;;;3.47;;
34673;SDS011;20879;55.668;37.858;2023-02-10T01:35:03;7.85;;;4.00;;
34673;SDS011;20879;55.668;37.858;2023-02-10T01:37:32;8.00;;;3.90;;
34673;SDS011;20879;55.668;37.858;2023-02-10T01:42:35;8.15;;;3.80;;
34673;SDS011;20879;55.668;37.858;2023-02-10T01:45:13;6.85;;;4.18;;
34673;SDS011;20879;55.668;37.858;2023-02-10T01:47:52;8.25;;;4.07;;
34673;SDS011;20879;55.668;37.858;2023-02-10T01:50:25;5.88;;;3.72;;
34673;SDS011;20879;55.668;37.858;2023-02-10T01:52:57;10.63;;;4.60;;
34673;SDS011;20879;55.668;37.858;2023-02-10T01:55:33;6.78;;;3.75;;
34673;SDS011;20879;55.668;37.858;2023-02-10T01:58:06;7.57;;;4.07;;
34673;SDS011;20879;55.668;37.858;2023-02-10T02:00:39;7.85;;;3.97;;
34673;SDS011;20879;55.668;37.858;2023-02-10T02:03:08;9.18;;;4.50;;
34673;SDS011;20879;55.668;37.858;2023-02-10T02:05:38;8.77;;;4.03;;
34673;SDS011;20879;55.668;37.858;2023-02-10T02:08:11;8.30;;;4.57;;
34673;SDS011;20879;55.668;37.858;2023-02-10T02:10:47;7.50;;;3.90;;
34673;SDS011;20879;55.668;37.858;2023-02-10T02:13:39;7.35;;;4.10;;
34673;SDS011;20879;55.668;37.858;2023-02-10T02:16:38;5.97;;;3.33;;
34673;SDS011;20879;55.668;37.858;2023-02-10T02:19:29;8.88;;;4.40;;
34673;SDS011;20879;55.668;37.858;2023-02-10T02:22:21;6.63;;;3.88;;
34673;SDS011;20879;55.668;37.858;2023-02-10T02:25:11;8.57;;;4.13;;
34673;SDS011;20879;55.668;37.858;2023-02-10T02:33:49;7.88;;;4.72;;
34673;SDS011;20879;55.668;37.858;2023-02-10T02:36:25;6.85;;;4.35;;
34673;SDS011;20879;55.668;37.858;2023-02-10T02:39:04;8.38;;;4.95;;
34673;SDS011;20879;55.668;37.858;2023-02-10T02:41:34;10.23;;;5.53;;
34673;SDS011;20879;55.668;37.858;2023-02-10T02:44:04;8.43;;;5.05;;
34673;SDS011;20879;55.668;37.858;2023-02-10T02:46:38;8.60;;;5.35;;
34673;SDS011;20879;55.668;37.858;2023-02-10T02:49:20;9.30;;;4.80;;
34673;SDS011;20879;55.668;37.858;2023-02-10T02:52:04;9.52;;;5.30;;
34673;SDS011;20879;55.668;37.858;2023-02-10T02:54:41;7.85;;;5.38;;
34673;SDS011;20879;55.668;37.858;2023-02-10T02:57:18;9.25;;;5.13;;
34673;SDS011;20879;55.668;37.858;2023-02-10T02:59:56;9.75;;;5.82;;
34673;SDS011;20879;55.668;37.858;2023-02-10T03:02:31;11.00;;;5.90;;
34673;SDS011;20879;55.668;37.858;2023-02-10T03:05:04;8.75;;;5.45;;
34673;SDS011;20879;55.668;37.858;2023-02-10T03:07:34;9.75;;;5.90;;
34673;SDS011;20879;55.668;37.858;2023-02-10T03:10:03;7.75;;;5.20;;
34673;SDS011;20879;55.668;37.858;2023-02-10T03:12:34;10.65;;;5.53;;
34673;SDS011;20879;55.668;37.858;2023-02-10T03:15:03;10.95;;;6.18;;
34673;SDS011;20879;55.668;37.858;2023-02-10T03:17:32;9.82;;;5.07;;
34673;SDS011;20879;55.668;37.858;2023-02-10T03:20:01;8.50;;;5.40;;
34673;SDS011;20879;55.668;37.858;2023-02-10T03:25:02;9.77;;;6.28;;
34673;SDS011;20879;55.668;37.858;2023-02-10T03:27:32;10.55;;;6.05;;
34673;SDS011;20879;55.668;37.858;2023-02-10T03:30:01;8.70;;;5.75;;
34673;SDS011;20879;55.668;37.858;2023-02-10T03:32:31;14.60;;;6.50;;
34673;SDS011;20879;55.668;37.858;2023-02-10T03:35:11;9.77;;;6.32;;
34673;SDS011;20879;55.668;37.858;2023-02-10T03:37:41;9.48;;;6.55;;
34673;SDS011;20879;55.668;37.858;2023-02-10T03:40:11;11.68;;;6.53;;
34673;SDS011;20879;55.668;37.858;2023-02-10T03:42:40;10.38;;;6.45;;
34673;SDS011;20879;55.668;37.858;2023-02-10T03:45:15;12.52;;;7.30;;
34673;SDS011;20879;55.668;37.858;2023-02-10T03:47:44;12.45;;;6.63;;
34673;SDS011;20879;55.668;37.858;2023-02-10T03:50:26;11.82;;;7.50;;
34673;SDS011;20879;55.668;37.858;2023-02-10T03:52:56;10.70;;;6.25;;
34673;SDS011;20879;55.668;37.858;2023-02-10T03:55:30;12.75;;;7.20;;
34673;SDS011;20879;55.668;37.858;2023-02-10T03:58:00;13.90;;;7.25;;
34673;SDS011;20879;55.668;37.858;2023-02-10T04:00:34;12.60;;;7.30;;
34673;SDS011;20879;55.668;37.858;2023-02-10T04:03:04;12.55;;;7.13;;
34673;SDS011;20879;55.668;37.858;2023-02-10T04:05:35;12.07;;;7.45;;
34673;SDS011;20879;55.668;37.858;2023-02-10T04:08:05;13.35;;;7.40;;
34673;SDS011;20879;55.668;37.858;2023-02-10T04:10:35;13.18;;;7.40;;
34673;SDS011;20879;55.668;37.858;2023-02-10T04:13:04;15.70;;;8.15;;
34673;SDS011;20879;55.668;37.858;2023-02-10T04:15:33;12.30;;;7.60;;
34673;SDS011;20879;55.668;37.858;2023-02-10T04:18:03;13.85;;;7.72;;
34673;SDS011;20879;55.668;37.858;2023-02-10T04:20:32;14.63;;;7.53;;
34673;SDS011;20879;55.668;37.858;2023-02-10T04:23:03;12.05;;;7.82;;
34673;SDS011;20879;55.668;37.858;2023-02-10T04:25:38;13.57;;;7.38;;
34673;SDS011;20879;55.668;37.858;2023-02-10T04:28:07;13.43;;;7.57;;
34673;SDS011;20879;55.668;37.858;2023-02-10T04:30:36;13.10;;;7.95;;
34673;SDS011;20879;55.668;37.858;2023-02-10T04:33:05;11.35;;;6.75;;
34673;SDS011;20879;55.668;37.858;2023-02-10T04:35:34;13.88;;;7.15;;
34673;SDS011;20879;55.668;37.858;2023-02-10T04:38:05;12.02;;;7.68;;
34673;SDS011;20879;55.668;37.858;2023-02-10T04:40:35;11.43;;;7.43;;
34673;SDS011;20879;55.668;37.858;2023-02-10T04:43:05;10.55;;;5.93;;
34673;SDS011;20879;55.668;37.858;2023-02-10T04:48:11;11.00;;;6.95;;
34673;SDS011;20879;55.668;37.858;2023-02-10T04:50:41;14.15;;;7.80;;
34673;SDS011;20879;55.668;37.858;2023-02-10T04:53:13;14.75;;;8.02;;
34673;SDS011;20879;55.668;37.858;2023-02-10T04:55:42;13.20;;;7.53;;
34673;SDS011;20879;55.668;37.858;2023-02-10T04:58:17;13.70;;;7.90;;
34673;SDS011;20879;55.668;37.858;2023-02-10T05:00:48;9.63;;;5.68;;
34673;SDS011;20879;55.668;37.858;2023-02-10T05:03:17;15.02;;;8.05;;
34673;SDS011;20879;55.668;37.858;2023-02-10T05:05:46;14.45;;;7.22;;
34673;SDS011;20879;55.668;37.858;2023-02-10T05:08:19;12.10;;;7.47;;
34673;SDS011;20879;55.668;37.858;2023-02-10T05:10:55;13.23;;;7.75;;
34673;SDS011;20879;55.668;37.858;2023-02-10T05:13:25;12.40;;;7.57;;
34673;SDS011;20879;55.668;37.858;2023-02-10T05:15:59;11.85;;;7.20;;
34673;SDS011;20879;55.668;37.858;2023-02-10T05:18:33;11.82;;;7.68;;
34673;SDS011;20879;55.668;37.858;2023-02-10T05:21:07;13.10;;;7.97;;
34673;SDS011;20879;55.668;37.858;2023-02-10T05:23:40;11.52;;;6.68;;
34673;SDS011;20879;55.668;37.858;2023-02-10T05:26:15;12.18;;;7.25;;
34673;SDS011;20879;55.668;37.858;2023-02-10T05:28:45;14.50;;;9.32;;
34673;SDS011;20879;55.668;37.858;2023-02-10T05:31:14;12.77;;;8.23;;
34673;SDS011;20879;55.668;37.858;2023-02-10T05:33:43;13.23;;;8.82;;
34673;SDS011;20879;55.668;37.858;2023-02-10T05:36:12;11.65;;;6.65;;
34673;SDS011;20879;55.668;37.858;2023-02-10T05:38:44;13.63;;;8.45;;
34673;SDS011;20879;55.668;37.858;2023-02-10T05:41:42;15.55;;;8.38;;
34673;SDS011;20879;55.668;37.858;2023-02-10T05:44:11;13.80;;;7.47;;
34673;SDS011;20879;55.668;37.858;2023-02-10T05:46:41;12.68;;;6.88;;
34673;SDS011;20879;55.668;37.858;2023-02-10T05:49:10;13.25;;;5.00;;
34673;SDS011;20879;55.668;37.858;2023-02-10T05:51:40;14.85;;;8.38;;
34673;SDS011;20879;55.668;37.858;2023-02-10T05:54:11;14.65;;;8.30;;
34673;SDS011;20879;55.668;37.858;2023-02-10T05:56:52;14.27;;;8.10;;
34673;SDS011;20879;55.668;37.858;2023-02-10T05:59:21;16.00;;;9.13;;
34673;SDS011;20879;55.668;37.858;2023-02-10T06:01:50;15.13;;;8.05;;
34673;SDS011;20879;55.668;37.858;2023-02-10T06:04:19;16.42;;;9.18;;
34673;SDS011;20879;55.668;37.858;2023-02-10T06:06:49;18.13;;;9.30;;
34673;SDS011;20879;55.668;37.858;2023-02-10T06:09:20;16.58;;;8.15;;
34673;SDS011;20879;55.668;37.858;2023-02-10T06:11:49;13.52;;;8.45;;
34673;SDS011;20879;55.668;37.858;2023-02-10T06:14:19;13.45;;;8.00;;
34673;SDS011;20879;55.668;37.858;2023-02-10T06:16:48;14.18;;;8.75;;
34673;SDS011;20879;55.668;37.858;2023-02-10T06:19:18;13.75;;;8.45;;
34673;SDS011;20879;55.668;37.858;2023-02-10T06:21:52;14.93;;;8.45;;
34673;SDS011;20879;55.668;37.858;2023-02-10T06:24:24;20.92;;;10.50;;
34673;SDS011;20879;55.668;37.858;2023-02-10T06:26:55;15.60;;;9.25;;
34673;SDS011;20879;55.668;37.858;2023-02-10T06:29:25;17.33;;;10.52;;
34673;SDS011;20879;55.668;37.858;2023-02-10T06:32:00;14.57;;;8.68;;
34673;SDS011;20879;55.668;37.858;2023-02-10T06:34:35;16.75;;;9.32;;
34673;SDS011;20879;55.668;37.858;2023-02-10T06:37:04;16.88;;;9.25;;
34673;SDS011;20879;55.668;37.858;2023-02-10T06:39:35;14.57;;;8.95;;
34673;SDS011;20879;55.668;37.858;2023-02-10T06:42:04;14.60;;;8.63;;
34673;SDS011;20879;55.668;37.858;2023-02-10T06:44:34;16.88;;;10.23;;
34673;SDS011;20879;55.668;37.858;2023-02-10T06:47:13;16.88;;;9.38;;
34673;SDS011;20879;55.668;37.858;2023-02-10T06:49:42;16.23;;;9.55;;
34673;SDS011;20879;55.668;37.858;2023-02-10T06:52:16;17.00;;;9.55;;
34673;SDS011;20879;55.668;37.858;2023-02-10T06:54:48;15.82;;;8.88;;
34673;SDS011;20879;55.668;37.858;2023-02-10T06:57:17;12.27;;;6.25;;
34673;SDS011;20879;55.668;37.858;2023-02-10T06:59:47;15.80;;;8.63;;
34673;SDS011;20879;55.668;37.858;2023-02-10T07:02:19;14.02;;;8.60;;
34673;SDS011;20879;55.668;37.858;2023-02-10T07:04:48;14.80;;;9.20;;
34673;SDS011;20879;55.668;37.858;2023-02-10T07:07:28;16.35;;;8.98;;
34673;SDS011;20879;55.668;37.858;2023-02-10T07:10:00;15.93;;;9.00;;
34673;SDS011;20879;55.668;37.858;2023-02-10T07:14:58;12.63;;;6.70;;
34673;SDS011;20879;55.668;37.858;2023-02-10T07:17:30;14.55;;;8.57;;
34673;SDS011;20879;55.668;37.858;2023-02-10T07:20:04;14.85;;;8.20;;
34673;SDS011;20879;55.668;37.858;2023-02-10T07:22:34;13.65;;;8.63;;
34673;SDS011;20879;55.668;37.858;2023-02-10T07:25:05;17.65;;;8.35;;
34673;SDS011;20879;55.668;37.858;2023-02-10T07:27:37;15.63;;;8.65;;
34673;SDS011;20879;55.668;37.858;2023-02-10T07:30:06;15.40;;;9.27;;
34673;SDS011;20879;55.668;37.858;2023-02-10T07:32:36;18.90;;;9.38;;
34673;SDS011;20879;55.668;37.858;2023-02-10T07:37:49;14.43;;;8.60;;
34673;SDS011;20879;55.668;37.858;2023-02-10T07:40:20;13.50;;;7.53;;
34673;SDS011;20879;55.668;37.858;2023-02-10T07:42:50;15.57;;;8.98;;
34673;SDS011;20879;55.668;37.858;2023-02-10T07:45:31;16.20;;;8.40;;
34673;SDS011;20879;55.668;37.858;2023-02-10T07:48:06;12.65;;;7.75;;
34673;SDS011;20879;55.668;37.858;2023-02-10T07:50:36;15.73;;;8.48;;
34673;SDS011;20879;55.668;37.858;2023-02-10T07:53:10;18.40;;;9.25;;
34673;SDS011;20879;55.668;37.858;2023-02-10T07:55:47;14.68;;;8.18;;
34673;SDS011;20879;55.668;37.858;2023-02-10T07:58:17;17.90;;;8.32;;
34673;SDS011;20879;55.668;37.858;2023-02-10T08:00:46;13.18;;;8.52;;
34673;SDS011;20879;55.668;37.858;2023-02-10T08:03:15;15.65;;;8.55;;
34673;SDS011;20879;55.668;37.858;2023-02-10T08:06:00;13.90;;;8.70;;
34673;SDS011;20879;55.668;37.858;2023-02-10T08:08:29;13.07;;;8.05;;
34673;SDS011;20879;55.668;37.858;2023-02-10T08:11:02;13.57;;;7.95;;
34673;SDS011;20879;55.668;37.858;2023-02-10T08:13:37;13.00;;;7.90;;
34673;SDS011;20879;55.668;37.858;2023-02-10T08:16:12;9.98;;;5.97;;
34673;SDS011;20879;55.668;37.858;2023-02-10T08:18:41;13.52;;;7.60;;
34673;SDS011;20879;55.668;37.858;2023-02-10T08:21:11;14.93;;;6.55;;
34673;SDS011;20879;55.668;37.858;2023-02-10T08:23:45;9.95;;;6.15;;
34673;SDS011;20879;55.668;37.858;2023-02-10T08:26:23;14.75;;;8.13;;
34673;SDS011;20879;55.668;37.858;2023-02-10T08:28:52;14.40;;;7.18;;
34673;SDS011;20879;55.668;37.858;2023-02-10T08:31:22;13.88;;;8.10;;
34673;SDS011;20879;55.668;37.858;2023-02-10T08:33:51;14.07;;;8.00;;
34673;SDS011;20879;55.668;37.858;2023-02-10T08:36:20;10.63;;;6.43;;
34673;SDS011;20879;55.668;37.858;2023-02-10T08:38:50;11.32;;;7.18;;
34673;SDS011;20879;55.668;37.858;2023-02-10T08:41:23;14.40;;;7.28;;
34673;SDS011;20879;55.668;37.858;2023-02-10T08:43:56;14.25;;;7.63;;
34673;SDS011;20879;55.668;37.858;2023-02-10T08:46:26;13.23;;;7.25;;
34673;SDS011;20879;55.668;37.858;2023-02-10T08:48:56;12.85;;;7.28;;
34673;SDS011;20879;55.668;37.858;2023-02-10T08:51:27;9.77;;;5.72;;
34673;SDS011;20879;55.668;37.858;2023-02-10T08:53:59;14.05;;;8.05;;
34673;SDS011;20879;55.668;37.858;2023-02-10T08:56:44;12.07;;;7.53;;
34673;SDS011;20879;55.668;37.858;2023-02-10T08:59:13;12.73;;;7.82;;
34673;SDS011;20879;55.668;37.858;2023-02-10T09:01:42;13.35;;;7.35;;
34673;SDS011;20879;55.668;37.858;2023-02-10T09:04:11;11.35;;;6.80;;
34673;SDS011;20879;55.668;37.858;2023-02-10T09:06:41;8.70;;;5.75;;
34673;SDS011;20879;55.668;37.858;2023-02-10T09:09:17;13.20;;;7.47;;
34673;SDS011;20879;55.668;37.858;2023-02-10T09:11:52;16.48;;;7.80;;
34673;SDS011;20879;55.668;37.858;2023-02-10T09:14:22;15.50;;;7.85;;
34673;SDS011;20879;55.668;37.858;2023-02-10T09:16:51;10.93;;;6.93;;
34673;SDS011;20879;55.668;37.858;2023-02-10T09:19:20;11.80;;;7.32;;
34673;SDS011;20879;55.668;37.858;2023-02-10T09:21:50;11.98;;;7.28;;
34673;SDS011;20879;55.668;37.858;2023-02-10T09:24:21;13.85;;;7.43;;
34673;SDS011;20879;55.668;37.858;2023-02-10T09:26:53;10.02;;;6.05;;
34673;SDS011;20879;55.668;37.858;2023-02-10T09:29:27;11.63;;;6.93;;
34673;SDS011;20879;55.668;37.858;2023-02-10T09:31:57;9.23;;;5.43;;
34673;SDS011;20879;55.668;37.858;2023-02-10T09:34:26;10.43;;;6.10;;
34673;SDS011;20879;55.668;37.858;2023-02-10T09:36:57;9.60;;;5.90;;
34673;SDS011;20879;55.668;37.858;2023-02-10T09:39:28;11.02;;;6.72;;
34673;SDS011;20879;55.668;37.858;2023-02-10T09:42:01;12.60;;;6.80;;
34673;SDS011;20879;55.668;37.858;2023-02-10T09:44:38;11.77;;;6.43;;
34673;SDS011;20879;55.668;37.858;2023-02-10T09:50:03;10.75;;;5.82;;
34673;SDS011;20879;55.668;37.858;2023-02-10T09:52:46;12.85;;;6.18;;
34673;SDS011;20879;55.668;37.858;2023-02-10T09:55:29;12.20;;;6.50;;
34673;SDS011;20879;55.668;37.858;2023-02-10T09:58:03;11.35;;;6.90;;
34673;SDS011;20879;55.668;37.858;2023-02-10T10:00:43;12.23;;;6.80;;
34673;SDS011;20879;55.668;37.858;2023-02-10T10:03:14;10.83;;;6.50;;
34673;SDS011;20879;55.668;37.858;2023-02-10T10:08:27;10.23;;;5.70;;
34673;SDS011;20879;55.668;37.858;2023-02-10T10:11:05;16.25;;;7.03;;
34673;SDS011;20879;55.668;37.858;2023-02-10T10:13:48;9.50;;;5.85;;
34673;SDS011;20879;55.668;37.858;2023-02-10T10:16:19;9.32;;;5.53;;
34673;SDS011;20879;55.668;37.858;2023-02-10T10:18:58;9.27;;;6.20;;
34673;SDS011;20879;55.668;37.858;2023-02-10T10:21:41;10.75;;;6.07;;
34673;SDS011;20879;55.668;37.858;2023-02-10T10:24:26;13.95;;;6.50;;
34673;SDS011;20879;55.668;37.858;2023-02-10T10:27:14;10.70;;;6.43;;
34673;SDS011;20879;55.668;37.858;2023-02-10T10:29:55;11.32;;;6.53;;
34673;SDS011;20879;55.668;37.858;2023-02-10T10:32:34;12.95;;;6.75;;
34673;SDS011;20879;55.668;37.858;2023-02-10T10:35:15;11.98;;;6.10;;
34673;SDS011;20879;55.668;37.858;2023-02-10T10:37:48;10.70;;;6.00;;
34673;SDS011;20879;55.668;37.858;2023-02-10T10:40:19;11.55;;;6.30;;
34673;SDS011;20879;55.668;37.858;2023-02-10T10:42:55;10.80;;;5.90;;
34673;SDS011;20879;55.668;37.858;2023-02-10T10:45:33;11.10;;;6.20;;
34673;SDS011;20879;55.668;37.858;2023-02-10T10:48:05;11.45;;;6.45;;
34673;SDS011;20879;55.668;37.858;2023-02-10T10:50:37;10.35;;;6.20;;
34673;SDS011;20879;55.668;37.858;2023-02-10T10:53:11;11.32;;;6.25;;
34673;SDS011;20879;55.668;37.858;2023-02-10T10:55:45;12.77;;;6.72;;
34673;SDS011;20879;55.668;37.858;2023-02-10T10:58:28;10.45;;;6.18;;
34673;SDS011;20879;55.668;37.858;2023-02-10T11:01:05;11.35;;;6.22;;
34673;SDS011;20879;55.668;37.858;2023-02-10T11:03:40;13.88;;;6.07;;
34673;SDS011;20879;55.668;37.858;2023-02-10T11:06:10;11.57;;;6.50;;
34673;SDS011;20879;55.668;37.858;2023-02-10T11:08:52;11.70;;;6.50;;
34673;SDS011;20879;55.668;37.858;2023-02-10T11:11:38;12.85;;;6.32;;
34673;SDS011;20879;55.668;37.858;2023-02-10T11:14:21;10.18;;;6.50;;
34673;SDS011;20879;55.668;37.858;2023-02-10T11:16:56;11.50;;;6.30;;
34673;SDS011;20879;55.668;37.858;2023-02-10T11:19:29;9.80;;;5.72;;
34673;SDS011;20879;55.668;37.858;2023-02-10T11:22:20;10.98;;;5.60;;
34673;SDS011;20879;55.668;37.858;2023-02-10T11:24:59;11.30;;;6.05;;
34673;SDS011;20879;55.668;37.858;2023-02-10T11:27:38;8.75;;;5.22;;
34673;SDS011;20879;55.668;37.858;2023-02-10T11:30:25;10.45;;;5.90;;
34673;SDS011;20879;55.668;37.858;2023-02-10T11:33:03;14.02;;;5.80;;
34673;SDS011;20879;55.668;37.858;2023-02-10T11:35:46;9.88;;;4.95;;
34673;SDS011;20879;55.668;37.858;2023-02-10T11:38:17;10.55;;;6.07;;
34673;SDS011;20879;55.668;37.858;2023-02-10T11:40:51;12.23;;;6.25;;
34673;SDS011;20879;55.668;37.858;2023-02-10T11:43:23;13.70;;;6.22;;
34673;SDS011;20879;55.668;37.858;2023-02-10T11:45:57;10.32;;;6.05;;
34673;SDS011;20879;55.668;37.858;2023-02-10T11:48:30;9.85;;;5.70;;
34673;SDS011;20879;55.668;37.858;2023-02-10T11:51:01;10.35;;;5.88;;
34673;SDS011;20879;55.668;37.858;2023-02-10T11:53:41;9.65;;;6.15;;
34673;SDS011;20879;55.668;37.858;2023-02-10T11:56:18;10.80;;;6.47;;
34673;SDS011;20879;55.668;37.858;2023-02-10T11:59:13;12.68;;;6.25;;
34673;SDS011;20879;55.668;37.858;2023-02-10T12:01:56;10.38;;;5.30;;
34673;SDS011;20879;55.668;37.858;2023-02-10T12:07:36;11.57;;;6.15;;
34673;SDS011;20879;55.668;37.858;2023-02-10T12:10:20;12.02;;;5.97;;
34673;SDS011;20879;55.668;37.858;2023-02-10T12:15:39;10.80;;;6.57;;
34673;SDS011;20879;55.668;37.858;2023-02-10T12:24:40;11.15;;;5.50;;
34673;SDS011;20879;55.668;37.858;2023-02-10T12:27:31;13.60;;;5.82;;
34673;SDS011;20879;55.668;37.858;2023-02-10T12:30:19;11.52;;;6.57;;
34673;SDS011;20879;55.668;37.858;2023-02-10T12:33:00;13.68;;;5.80;;
34673;SDS011;20879;55.668;37.858;2023-02-10T12:35:46;10.80;;;6.32;;
34673;SDS011;20879;55.668;37.858;2023-02-10T12:38:25;10.25;;;5.75;;
34673;SDS011;20879;55.668;37.858;2023-02-10T12:41:16;12.13;;;6.20;;
34673;SDS011;20879;55.668;37.858;2023-02-10T12:43:58;12.07;;;6.53;;
34673;SDS011;20879;55.668;37.858;2023-02-10T12:53:32;9.32;;;5.57;;
34673;SDS011;20879;55.668;37.858;2023-02-10T12:56:14;13.27;;;6.25;;
34673;SDS011;20879;55.668;37.858;2023-02-10T12:58:50;9.57;;;5.65;;
34673;SDS011;20879;55.668;37.858;2023-02-10T13:01:26;13.60;;;5.97;;
34673;SDS011;20879;55.668;37.858;2023-02-10T13:04:03;14.85;;;6.30;;
34673;SDS011;20879;55.668;37.858;2023-02-10T13:06:41;10.10;;;6.10;;
34673;SDS011;20879;55.668;37.858;2023-02-10T13:09:20;9.60;;;5.53;;
34673;SDS011;20879;55.668;37.858;2023-02-10T13:12:06;10.50;;;5.70;;
34673;SDS011;20879;55.668;37.858;2023-02-10T13:14:42;9.70;;;5.53;;
34673;SDS011;20879;55.668;37.858;2023-02-10T13:17:15;11.60;;;5.65;;
34673;SDS011;20879;55.668;37.858;2023-02-10T13:19:47;13.07;;;6.82;;
34673;SDS011;20879;55.668;37.858;2023-02-10T13:22:24;11.18;;;6.70;;
34673;SDS011;20879;55.668;37.858;2023-02-10T13:27:59;11.00;;;5.78;;
34673;SDS011;20879;55.668;37.858;2023-02-10T13:30:41;11.85;;;5.75;;
34673;SDS011;20879;55.668;37.858;2023-02-10T13:33:22;10.77;;;6.15;;
34673;SDS011;20879;55.668;37.858;2023-02-10T13:35:59;11.18;;;6.20;;
34673;SDS011;20879;55.668;37.858;2023-02-10T13:38:30;12.95;;;6.75;;
34673;SDS011;20879;55.668;37.858;2023-02-10T13:43:45;11.25;;;5.45;;
34673;SDS011;20879;55.668;37.858;2023-02-10T13:46:19;11.60;;;5.72;;
34673;SDS011;20879;55.668;37.858;2023-02-10T13:48:53;11.52;;;6.43;;
34673;SDS011;20879;55.668;37.858;2023-02-10T13:51:29;12.75;;;6.57;;
34673;SDS011;20879;55.668;37.858;2023-02-10T13:54:02;15.07;;;7.60;;
34673;SDS011;20879;55.668;37.858;2023-02-10T13:56:34;12.10;;;6.82;;
34673;SDS011;20879;55.668;37.858;2023-02-10T13:59:27;11.52;;;6.65;;
34673;SDS011;20879;55.668;37.858;2023-02-10T14:02:11;19.90;;;7.00;;
34673;SDS011;20879;55.668;37.858;2023-02-10T14:04:47;13.57;;;6.95;;
34673;SDS011;20879;55.668;37.858;2023-02-10T14:07:31;11.48;;;6.55;;
34673;SDS011;20879;55.668;37.858;2023-02-10T14:10:05;10.55;;;5.97;;
34673;SDS011;20879;55.668;37.858;2023-02-10T14:12:58;12.02;;;6.15;;
34673;SDS011;20879;55.668;37.858;2023-02-10T14:15:30;14.85;;;6.43;;
34673;SDS011;20879;55.668;37.858;2023-02-10T14:18:20;12.85;;;6.82;;
34673;SDS011;20879;55.668;37.858;2023-02-10T14:20:54;10.25;;;5.50;;
34673;SDS011;20879;55.668;37.858;2023-02-10T14:23:24;15.05;;;6.38;;
34673;SDS011;20879;55.668;37.858;2023-02-10T14:25:54;15.50;;;6.57;;
34673;SDS011;20879;55.668;37.858;2023-02-10T14:28:29;10.35;;;5.85;;
34673;SDS011;20879;55.668;37.858;2023-02-10T14:31:04;11.93;;;5.88;;
34673;SDS011;20879;55.668;37.858;2023-02-10T14:33:39;14.10;;;6.25;;
34673;SDS011;20879;55.668;37.858;2023-02-10T14:36:15;11.15;;;6.30;;
34673;SDS011;20879;55.668;37.858;2023-02-10T14:38:49;11.35;;;6.18;;
34673;SDS011;20879;55.668;37.858;2023-02-10T14:41:25;10.73;;;6.35;;
34673;SDS011;20879;55.668;37.858;2023-02-10T14:44:03;11.60;;;5.45;;
34673;SDS011;20879;55.668;37.858;2023-02-10T14:46:33;13.15;;;5.75;;
34673;SDS011;20879;55.668;37.858;2023-02-10T14:49:03;11.55;;;5.38;;
34673;SDS011;20879;55.668;37.858;2023-02-10T14:51:38;12.68;;;6.95;;
34673;SDS011;20879;55.668;37.858;2023-02-10T14:54:09;11.55;;;6.80;;
34673;SDS011;20879;55.668;37.858;2023-02-10T14:56:39;10.18;;;6.10;;
34673;SDS011;20879;55.668;37.858;2023-02-10T14:59:19;12.50;;;6.95;;
34673;SDS011;20879;55.668;37.858;2023-02-10T15:01:49;11.70;;;6.55;;
34673;SDS011;20879;55.668;37.858;2023-02-10T15:04:19;13.40;;;4.97;;
34673;SDS011;20879;55.668;37.858;2023-02-10T15:06:52;12.55;;;5.93;;
34673;SDS011;20879;55.668;37.858;2023-02-10T15:09:29;11.50;;;5.57;;
34673;SDS011;20879;55.668;37.858;2023-02-10T15:12:04;14.32;;;6.10;;
34673;SDS011;20879;55.668;37.858;2023-02-10T15:14:46;15.07;;;6.15;;
34673;SDS011;20879;55.668;37.858;2023-02-10T15:17:24;9.77;;;5.80;;
34673;SDS011;20879;55.668;37.858;2023-02-10T15:19:58;14.52;;;7.05;;
34673;SDS011;20879;55.668;37.858;2023-02-10T15:22:31;13.40;;;5.97;;
34673;SDS011;20879;55.668;37.858;2023-02-10T15:31:03;13.52;;;5.65;;
34673;SDS011;20879;55.668;37.858;2023-02-10T15:33:35;8.82;;;5.03;;
34673;SDS011;20879;55.668;37.858;2023-02-10T15:36:18;14.05;;;6.47;;
34673;SDS011;20879;55.668;37.858;2023-02-10T15:38:51;9.90;;;5.55;;
34673;SDS011;20879;55.668;37.858;2023-02-10T15:41:33;12.35;;;6.00;;
34673;SDS011;20879;55.668;37.858;2023-02-10T15:47:12;12.00;;;5.40;;
34673;SDS011;20879;55.668;37.858;2023-02-10T15:49:52;16.20;;;6.45;;
34673;SDS011;20879;55.668;37.858;2023-02-10T15:52:25;15.93;;;6.68;;
34673;SDS011;20879;55.668;37.858;2023-02-10T15:54:58;11.35;;;5.53;;
34673;SDS011;20879;55.668;37.858;2023-02-10T15:57:34;12.40;;;6.22;;
34673;SDS011;20879;55.668;37.858;2023-02-10T16:00:05;14.65;;;7.28;;
34673;SDS011;20879;55.668;37.858;2023-02-10T16:02:42;13.18;;;6.50;;
34673;SDS011;20879;55.668;37.858;2023-02-10T16:05:11;13.90;;;5.93;;